Time;durP1;ratioP1;P1;durP2;ratioP2;P2;SDS_P1;SDS_P2;PMS_P1;PMS_P2;Temp;Humidity;BMP_temperature;BMP_pressure;BME280_temperature;BME280_humidity;BME280_pressure;Samples;Min_cycle;Max_cycle;Signal;HPM_P1;HPM_P2
2022/09/13 00:02:38;;;;;;;10.27;9.18;;;;;;;16.50;86.01;100028.16;5219716;22;20059;-75
2022/09/13 00:05:04;;;;;;;10.45;9.32;;;;;;;16.50;85.65;100025.53;5071312;28;20390;-74
2022/09/13 00:07:29;;;;;;;10.93;9.82;;;;;;;16.29;87.28;100023.69;5069410;28;20432;-74
2022/09/13 00:09:55;;;;;;;9.70;8.80;;;;;;;16.27;86.96;100014.97;5074601;28;20020;-74
2022/09/13 00:12:20;;;;;;;9.98;8.98;;;;;;;16.20;87.38;100015.81;5062979;28;20020;-72
2022/09/13 00:14:47;;;;;;;9.85;8.82;;;;;;;16.12;87.79;100023.56;5081635;28;20479;-73
2022/09/13 00:17:12;;;;;;;11.85;9.00;;;;;;;15.99;88.87;100026.97;5073150;28;20045;-73
2022/09/13 00:19:38;;;;;;;10.60;8.93;;;;;;;15.92;89.02;100018.22;5055231;28;20107;-72
2022/09/13 00:25:04;;;;;;;9.98;9.00;;;;;;;15.79;90.37;100008.56;5098773;22;20061;-72
2022/09/13 00:27:32;;;;;;;10.00;9.07;;;;;;;15.82;90.46;100016.41;5051897;28;20029;-73
2022/09/13 00:29:57;;;;;;;9.75;8.85;;;;;;;15.89;90.45;100010.41;4994788;28;20049;-72
2022/09/13 00:32:22;;;;;;;12.77;9.25;;;;;;;16.10;89.18;100025.31;5034552;28;20134;-72
2022/09/13 00:34:48;;;;;;;9.48;8.57;;;;;;;16.09;88.92;100018.34;5041820;28;20444;-72
2022/09/13 00:37:13;;;;;;;10.57;9.38;;;;;;;16.17;88.24;100013.19;5023538;28;20494;-72
2022/09/13 00:39:39;;;;;;;10.45;9.35;;;;;;;16.04;87.29;99980.09;5046348;28;20033;-73
2022/09/13 00:42:04;;;;;;;13.05;9.63;;;;;;;16.33;87.52;100021.97;5051053;28;20029;-73
2022/09/13 00:45:05;;;;;;;12.93;9.65;;;;;;;16.07;88.25;100024.41;5050897;28;20484;-72
2022/09/13 00:47:38;;;;;;;12.02;9.40;;;;;;;16.17;87.82;100032.31;4931215;29;20118;-73
2022/09/13 00:50:47;;;;;;;9.73;8.80;;;;;;;16.09;88.47;100033.97;4931082;29;20036;-72
2022/09/13 00:53:17;;;;;;;9.73;8.82;;;;;;;16.03;88.34;100027.88;4931012;29;20039;-73
2022/09/13 00:56:05;;;;;;;9.82;8.93;;;;;;;16.09;87.85;100030.50;4931179;29;20114;-72
2022/09/13 00:58:45;;;;;;;9.50;8.60;;;;;;;15.89;89.21;100025.13;4931118;29;20078;-74
2022/09/13 01:01:13;;;;;;;9.10;8.20;;;;;;;15.60;89.28;99987.56;4931238;29;20043;-72
2022/09/13 01:03:40;;;;;;;9.82;8.90;;;;;;;15.91;89.00;100007.78;4929956;29;20414;-73
2022/09/13 01:06:19;;;;;;;10.60;8.95;;;;;;;16.16;87.77;100022.75;4931000;29;20573;-73
2022/09/13 01:08:48;;;;;;;9.80;8.80;;;;;;;16.03;88.40;100030.47;4930887;29;20051;-73
2022/09/13 01:11:24;;;;;;;9.50;8.60;;;;;;;15.95;89.06;100025.16;4931046;29;20031;-72
2022/09/13 01:13:50;;;;;;;9.02;8.23;;;;;;;15.87;89.29;100014.72;4926152;29;20043;-73
2022/09/13 01:16:15;;;;;;;9.88;8.25;;;;;;;15.90;88.83;100017.34;4930146;29;20067;-73
2022/09/13 01:18:41;;;;;;;9.27;8.38;;;;;;;15.91;88.69;100020.81;4930431;29;20122;-73
2022/09/13 01:21:26;;;;;;;10.20;7.95;;;;;;;15.79;89.03;100021.56;4930630;29;20067;-72
2022/09/13 01:24:21;;;;;;;9.40;8.18;;;;;;;15.85;89.51;100024.25;5027896;28;20107;-76
2022/09/13 01:26:52;;;;;;;10.32;9.32;;;;;;;15.62;90.33;100024.88;5050005;28;20021;-76
2022/09/13 01:29:45;;;;;;;10.25;8.48;;;;;;;15.52;90.63;100026.50;5046655;28;20029;-76
2022/09/13 01:32:23;;;;;;;9.20;8.30;;;;;;;15.32;91.19;99992.50;5018825;28;20522;-73
2022/09/13 01:34:55;;;;;;;8.85;8.05;;;;;;;15.46;90.80;100033.41;5030658;28;20041;-75
2022/09/13 01:37:37;;;;;;;8.73;7.93;;;;;;;15.56;90.70;100036.97;5031484;28;20021;-75
2022/09/13 01:40:16;;;;;;;9.65;8.02;;;;;;;15.46;90.57;100025.59;5037098;28;20112;-75
2022/09/13 01:43:01;;;;;;;9.40;8.00;;;;;;;15.56;90.58;100032.63;5049832;28;20056;-74
2022/09/13 01:45:54;;;;;;;10.75;8.25;;;;;;;15.74;89.66;100036.25;5040011;28;20033;-73
2022/09/13 01:48:32;;;;;;;9.32;8.43;;;;;;;15.94;88.77;100021.72;5044333;28;20420;-74
2022/09/13 01:51:08;;;;;;;9.73;7.93;;;;;;;16.08;86.21;100032.22;5036075;28;20042;-75
2022/09/13 01:53:39;;;;;;;8.68;7.75;;;;;;;15.96;86.47;100037.34;5022627;28;20569;-73
2022/09/13 01:56:11;;;;;;;9.63;8.02;;;;;;;15.63;87.82;100018.81;5038981;28;20030;-74
2022/09/13 01:58:59;;;;;;;8.52;7.55;;;;;;;15.60;88.86;100033.53;5036454;28;20041;-73
2022/09/13 02:01:35;;;;;;;8.27;7.32;;;;;;;15.41;89.87;100027.28;5031844;28;20033;-75
2022/09/13 02:04:07;;;;;;;8.30;7.53;;;;;;;15.43;90.15;100034.25;5047692;28;20407;-72
2022/09/13 02:06:39;;;;;;;10.00;8.02;;;;;;;15.19;90.88;100029.66;5049576;28;20044;-75
2022/09/13 02:09:12;;;;;;;8.18;7.38;;;;;;;15.06;91.01;99987.03;5049595;28;20112;-73
2022/09/13 02:11:41;;;;;;;10.00;7.70;;;;;;;15.12;91.73;100031.31;5050000;28;20087;-75
2022/09/13 02:14:21;;;;;;;7.63;6.82;;;;;;;15.09;91.08;100012.19;5049135;28;20025;-75
2022/09/13 02:17:00;;;;;;;7.57;6.70;;;;;;;15.12;91.75;100010.50;5052603;28;20055;-75
2022/09/13 02:19:32;;;;;;;8.52;7.70;;;;;;;15.00;92.50;100025.97;5052776;28;20036;-73
2022/09/13 02:21:59;;;;;;;8.40;7.13;;;;;;;14.88;92.77;100014.56;5049644;28;20408;-73
2022/09/13 02:24:35;;;;;;;7.38;6.68;;;;;;;14.54;93.29;99984.66;5016652;28;20056;-74
2022/09/13 02:27:06;;;;;;;9.85;8.18;;;;;;;14.85;93.16;100031.84;5035185;28;20033;-73
2022/09/13 02:29:36;;;;;;;9.68;8.35;;;;;;;14.86;93.44;100042.25;5051450;28;20017;-73
2022/09/13 02:32:21;;;;;;;;;;;;;;;15.02;92.27;100029.47;5053196;28;20032;-73
2022/09/13 02:34:52;;;;;;;7.72;7.03;;;;;;;14.81;93.12;100019.69;5052852;28;19920;-73
2022/09/13 02:37:19;;;;;;;8.00;6.80;;;;;;;14.82;93.76;100024.88;5040219;28;20041;-72
2022/09/13 02:39:54;;;;;;;7.43;6.72;;;;;;;14.73;94.24;100009.19;5036770;28;20112;-74
2022/09/13 02:42:25;;;;;;;8.40;7.10;;;;;;;14.89;93.57;100018.03;5052392;28;20383;-72
2022/09/13 02:44:54;;;;;;;7.57;6.85;;;;;;;14.91;93.26;100020.66;5052354;28;20029;-72
2022/09/13 02:47:22;;;;;;;6.60;6.00;;;;;;;14.92;92.70;100015.47;5052597;28;20056;-73
2022/09/13 02:50:06;;;;;;;9.68;6.80;;;;;;;14.56;93.43;99988.16;5052094;28;20063;-74
2022/09/13 02:52:45;;;;;;;8.32;6.78;;;;;;;14.29;94.99;99968.75;5052122;28;20411;-69
2022/09/13 02:55:14;;;;;;;7.72;6.93;;;;;;;14.53;94.85;99998.53;5046724;28;20022;-71
2022/09/13 02:57:58;;;;;;;8.02;7.05;;;;;;;14.65;94.63;100024.66;5044346;28;20096;-72
2022/09/13 03:00:23;;;;;;;7.25;6.55;;;;;;;14.67;94.61;100035.97;5048396;28;20040;-67
2022/09/13 03:02:50;;;;;;;7.97;7.18;;;;;;;14.40;95.70;100024.31;5037399;28;20025;-78
2022/09/13 03:05:16;;;;;;;8.20;7.35;;;;;;;14.52;95.91;100033.13;5051896;28;20029;-74
2022/09/13 03:07:42;;;;;;;8.02;7.13;;;;;;;14.69;95.21;100031.66;5051969;28;20083;-72
2022/09/13 03:10:12;;;;;;;8.63;7.63;;;;;;;14.51;93.69;99979.44;5052095;28;20047;-72
2022/09/13 03:12:58;;;;;;;11.32;7.20;;;;;;;15.09;92.20;100035.59;5051992;28;20017;-75
2022/09/13 03:15:35;;;;;;;8.00;7.20;;;;;;;15.29;91.56;100031.50;5034599;28;20029;-74
2022/09/13 03:18:00;;;;;;;8.88;7.18;;;;;;;15.48;90.55;100035.16;5039610;28;20364;-73
2022/09/13 03:20:58;;;;;;;9.93;8.23;;;;;;;15.59;89.56;100040.47;5049552;28;20036;-73
2022/09/13 03:23:38;;;;;;;7.95;7.20;;;;;;;15.71;88.34;100042.28;5050766;28;20110;-76
2022/09/13 03:26:42;;;;;;;10.13;6.78;;;;;;;15.40;88.51;100009.91;5033719;28;20025;-73
2022/09/13 03:29:30;;;;;;;8.50;6.70;;;;;;;15.66;88.12;100038.78;5045685;28;20025;-74
2022/09/13 03:32:01;;;;;;;7.57;6.75;;;;;;;15.69;87.74;100037.09;5030562;28;20033;-74
2022/09/13 03:34:45;;;;;;;9.25;6.97;;;;;;;15.89;86.93;100049.44;5030997;28;20446;-76
2022/09/13 03:37:27;;;;;;;9.10;7.57;;;;;;;16.04;86.01;100045.19;5031140;28;20025;-75
2022/09/13 03:40:13;;;;;;;7.95;6.63;;;;;;;16.10;84.90;100042.63;5030969;28;20052;-76
2022/09/13 03:42:56;;;;;;;9.60;7.82;;;;;;;15.93;85.73;100043.38;5031038;28;20029;-70
2022/09/13 03:45:27;;;;;;;13.80;12.13;;;;;;;15.80;86.12;100031.09;5048711;28;20024;-73
2022/09/13 03:47:54;;;;;;;19.45;14.10;;;;;;;15.90;85.73;100032.97;5034549;28;20033;-75
2022/09/13 03:50:22;;;;;;;11.30;9.25;;;;;;;15.77;84.95;100020.66;4979402;28;20856;-70
2022/09/13 03:52:53;;;;;;;10.05;7.70;;;;;;;15.68;85.53;100024.06;5030786;28;20036;-72
2022/09/13 03:55:22;;;;;;;13.82;10.95;;;;;;;15.45;87.68;100039.44;5030717;28;20025;-75
2022/09/13 03:57:47;;;;;;;9.00;6.87;;;;;;;15.33;87.94;100028.06;5030352;28;20108;-72
2022/09/13 04:00:14;;;;;;;7.97;7.20;;;;;;;15.48;87.45;100039.50;5030035;28;20096;-73
2022/09/13 04:02:39;;;;;;;10.93;7.35;;;;;;;15.39;87.28;100005.56;5029748;28;20029;-76
2022/09/13 04:05:05;;;;;;;10.85;7.25;;;;;;;15.74;86.89;100033.66;5030090;28;20029;-74
2022/09/13 04:07:31;;;;;;;8.07;6.88;;;;;;;15.93;86.04;100045.13;5012811;28;20021;-77
2022/09/13 04:09:56;;;;;;;10.48;7.38;;;;;;;15.86;84.96;100025.97;5030892;28;20029;-75
2022/09/13 04:12:22;;;;;;;10.93;7.40;;;;;;;15.96;85.06;100037.34;5051038;28;20383;-74
2022/09/13 04:14:48;;;;;;;8.60;7.15;;;;;;;16.04;85.02;100043.50;5050906;28;20033;-74
2022/09/13 04:17:13;;;;;;;7.38;6.25;;;;;;;15.91;84.72;100013.84;5040435;28;20025;-75
2022/09/13 04:19:40;;;;;;;9.70;6.95;;;;;;;16.18;84.02;100048.78;5042392;28;20392;-73
2022/09/13 04:22:05;;;;;;;7.78;6.88;;;;;;;16.39;83.36;100049.81;5050342;28;20024;-71
2022/09/13 04:24:32;;;;;;;7.95;6.13;;;;;;;16.46;81.22;100051.56;5050515;28;20451;-74
2022/09/13 04:26:57;;;;;;;10.88;6.97;;;;;;;16.37;80.75;100028.06;5050136;28;20087;-73
2022/09/13 04:29:24;;;;;;;7.45;6.65;;;;;;;16.52;80.34;100059.44;5038388;28;20045;-73
2022/09/13 04:31:52;;;;;;;7.57;6.68;;;;;;;16.55;81.18;100059.47;5048491;28;20025;-72
2022/09/13 04:34:17;;;;;;;8.35;6.95;;;;;;;16.50;81.56;100050.75;5050534;28;20502;-73
2022/09/13 04:36:44;;;;;;;7.63;6.75;;;;;;;16.58;82.24;100061.22;5043090;28;20033;-76
2022/09/13 04:39:10;;;;;;;8.70;6.57;;;;;;;16.69;81.30;100066.50;5043681;28;20025;-72
2022/09/13 04:41:35;;;;;;;7.60;6.53;;;;;;;16.60;80.89;100059.50;5050819;28;20036;-72
2022/09/13 04:44:01;;;;;;;9.85;6.88;;;;;;;16.58;81.15;100056.84;5048022;28;20044;-72
2022/09/13 04:46:28;;;;;;;7.45;6.50;;;;;;;16.65;80.50;100079.50;4980368;28;20037;-72
2022/09/13 04:48:54;;;;;;;12.73;6.82;;;;;;;16.61;81.33;100080.34;5030866;28;20037;-73
2022/09/13 04:51:22;;;;;;;9.65;6.30;;;;;;;16.61;80.48;100087.28;5029905;28;20515;-80
2022/09/13 04:53:54;;;;;;;8.23;6.22;;;;;;;16.63;80.35;100093.38;5032593;28;20052;-76
2022/09/13 04:56:22;;;;;;;12.68;6.60;;;;;;;16.68;80.23;100088.19;5050406;28;20025;-79
2022/09/13 04:58:49;;;;;;;7.35;6.28;;;;;;;16.64;79.67;100087.31;5050241;28;20033;-78
2022/09/13 05:01:14;;;;;;;9.70;5.93;;;;;;;16.71;79.10;100085.59;5039883;28;20071;-73
2022/09/13 05:03:40;;;;;;;10.40;6.07;;;;;;;16.66;79.00;100089.06;5029608;28;20121;-78
2022/09/13 05:06:11;;;;;;;9.60;6.15;;;;;;;16.45;79.97;100081.13;5042892;28;20041;-77
2022/09/13 05:08:36;;;;;;;8.25;5.97;;;;;;;16.34;80.81;100092.31;5041255;28;20082;-74
2022/09/13 05:11:03;;;;;;;7.97;5.78;;;;;;;16.23;81.76;100099.19;5044519;28;20033;-71
2022/09/13 05:13:29;;;;;;;13.18;6.72;;;;;;;16.16;82.53;100094.78;5050152;28;20031;-73
2022/09/13 05:15:58;;;;;;;7.07;6.32;;;;;;;15.95;83.88;100100.66;5049820;28;20099;-72
2022/09/13 05:18:32;;;;;;;6.72;5.95;;;;;;;16.10;83.64;100100.81;5049900;28;20025;-77
2022/09/13 05:20:59;;;;;;;7.43;5.70;;;;;;;15.91;83.67;100086.75;5050028;28;20408;-74
2022/09/13 05:23:27;;;;;;;12.30;7.60;;;;;;;16.12;84.15;100104.28;5049573;28;20045;-77
2022/09/13 05:25:57;;;;;;;10.25;8.07;;;;;;;15.97;85.18;100098.97;5049953;28;20076;-73
2022/09/13 05:28:23;;;;;;;9.60;6.75;;;;;;;15.89;85.86;100101.50;5049710;28;20021;-75
2022/09/13 05:31:18;;;;;;;8.85;6.93;;;;;;;15.91;85.96;100104.13;5049630;28;20376;-81
2022/09/13 05:33:45;;;;;;;10.50;7.10;;;;;;;15.97;86.75;100107.63;4949273;29;20151;-74
2022/09/13 05:36:10;;;;;;;7.82;6.68;;;;;;;15.89;86.31;100083.28;4930284;29;20036;-77
2022/09/13 05:38:36;;;;;;;10.30;6.43;;;;;;;16.29;85.39;100100.97;4938756;29;20066;-74
2022/09/13 05:41:04;;;;;;;7.03;5.75;;;;;;;16.55;84.51;100093.34;4949112;29;20052;-72
2022/09/13 05:43:31;;;;;;;7.72;5.35;;;;;;;16.83;82.48;100101.31;4949144;29;20035;-72
2022/09/13 05:46:07;;;;;;;6.82;5.43;;;;;;;17.04;81.97;100095.34;4949345;29;20054;-72
2022/09/13 05:48:33;;;;;;;7.90;5.32;;;;;;;17.12;81.48;100095.38;4949187;29;20035;-74
2022/09/13 05:51:07;;;;;;;6.18;4.75;;;;;;;17.33;80.08;100096.34;4939823;28;20051;-75
2022/09/13 05:53:34;;;;;;;5.35;4.78;;;;;;;17.31;80.11;100104.16;4932979;29;20054;-75
2022/09/13 05:55:59;;;;;;;5.10;4.43;;;;;;;16.87;81.86;100100.44;4933484;29;20042;-75
2022/09/13 05:58:25;;;;;;;6.63;4.88;;;;;;;16.78;82.56;100096.06;4933420;29;20040;-73
2022/09/13 06:00:54;;;;;;;8.45;4.63;;;;;;;16.88;83.85;100114.38;4933638;29;20027;-74
2022/09/13 06:03:20;;;;;;;;;;;;;;;17.01;82.38;100121.44;4933658;29;20448;-73
2022/09/13 06:05:45;;;;;;;8.85;5.03;;;;;;;17.02;81.51;100117.06;4932946;29;19914;-76
2022/09/13 06:08:11;;;;;;;6.00;4.35;;;;;;;16.98;81.60;100109.25;4932817;29;20634;-74
2022/09/13 06:10:36;;;;;;;7.30;4.88;;;;;;;17.17;81.94;100118.88;4978127;28;20043;-72
2022/09/13 06:13:02;;;;;;;5.55;4.75;;;;;;;17.34;80.85;100129.41;5031024;28;20026;-74
2022/09/13 06:15:27;;;;;;;6.60;4.75;;;;;;;17.15;80.68;100118.88;5032913;28;20040;-72
2022/09/13 06:17:53;;;;;;;5.65;4.95;;;;;;;17.16;80.31;100093.66;5033443;28;20039;-74
2022/09/13 06:20:18;;;;;;;6.07;4.45;;;;;;;17.49;81.68;100119.00;5033754;28;20033;-74
2022/09/13 06:22:46;;;;;;;4.72;4.22;;;;;;;17.40;78.64;100124.19;5032251;28;20034;-75
2022/09/13 06:25:12;;;;;;;4.70;4.22;;;;;;;17.05;79.69;100083.22;5033093;28;20132;-77
2022/09/13 06:27:37;;;;;;;5.28;4.60;;;;;;;17.33;80.44;100096.34;5033761;28;20090;-73
2022/09/13 06:30:04;;;;;;;9.07;4.55;;;;;;;17.65;80.48;100117.31;5033811;28;20459;-75
2022/09/13 06:32:30;;;;;;;7.70;5.60;;;;;;;17.77;79.56;100113.88;5033359;28;20029;-73
2022/09/13 06:34:55;;;;;;;6.35;5.05;;;;;;;17.76;77.82;100118.19;5033580;28;20084;-76
2022/09/13 06:37:21;;;;;;;5.78;4.70;;;;;;;17.92;78.57;100126.06;5033466;28;20026;-73
2022/09/13 06:39:46;;;;;;;7.20;4.80;;;;;;;18.01;79.18;100120.00;5028607;28;20100;-75
2022/09/13 06:42:12;;;;;;;6.75;4.20;;;;;;;17.94;77.08;100095.63;5033208;28;20048;-74
2022/09/13 06:44:37;;;;;;;7.35;4.53;;;;;;;18.35;77.27;100120.00;5033317;28;20442;-78
2022/09/13 06:47:03;;;;;;;5.45;4.13;;;;;;;18.50;75.15;100130.44;5033356;28;20025;-75
2022/09/13 06:49:30;;;;;;;4.78;3.65;;;;;;;18.55;74.61;100115.63;5033345;28;20029;-74
2022/09/13 06:51:56;;;;;;;5.38;3.70;;;;;;;18.74;72.00;100140.00;5033181;28;20029;-74
2022/09/13 06:54:21;;;;;;;7.60;3.58;;;;;;;18.74;70.19;100141.72;5033024;28;20467;-73
2022/09/13 06:56:47;;;;;;;5.82;3.58;;;;;;;18.73;70.47;100140.88;4981577;28;20064;-77
2022/09/13 06:59:12;;;;;;;8.02;3.42;;;;;;;18.79;69.54;100128.66;5031809;28;20025;-75
2022/09/13 07:01:42;;;;;;;4.68;3.22;;;;;;;19.01;67.35;100137.34;4996791;28;20099;-75
2022/09/13 07:04:14;;;;;;;7.35;3.25;;;;;;;19.05;65.48;100105.06;5033033;28;20029;-74
2022/09/13 07:06:42;;;;;;;5.00;2.92;;;;;;;19.46;63.63;100138.03;5031520;28;20025;-75
2022/09/13 07:09:12;;;;;;;7.00;2.70;;;;;;;19.83;61.16;100132.63;5033100;28;20099;-75
2022/09/13 07:11:40;;;;;;;5.03;3.03;;;;;;;20.03;59.77;100137.72;5032925;28;20264;-74
2022/09/13 07:14:06;;;;;;;5.65;2.40;;;;;;;20.16;58.00;100135.88;5032800;28;20033;-76
2022/09/13 07:16:34;;;;;;;3.70;2.33;;;;;;;20.09;58.64;100142.06;5032813;28;20033;-79
2022/09/13 07:19:01;;;;;;;5.55;2.67;;;;;;;20.18;59.13;100136.72;5032602;28;20053;-77
2022/09/13 07:21:27;;;;;;;4.45;2.15;;;;;;;20.12;61.23;100114.94;5014844;28;20565;-80
2022/09/13 07:23:54;;;;;;;3.25;2.40;;;;;;;20.03;59.69;100132.47;5032263;28;20053;-76
2022/09/13 07:26:20;;;;;;;4.90;2.30;;;;;;;20.09;60.42;100139.44;5032529;28;20029;-80
2022/09/13 07:28:48;;;;;;;2.78;2.00;;;;;;;20.40;58.51;100143.53;5032583;28;20021;-78
2022/09/13 07:31:17;;;;;;;4.00;2.22;;;;;;;20.53;58.65;100135.53;5032579;28;20033;-81
2022/09/13 07:33:43;;;;;;;6.55;2.40;;;;;;;20.73;59.22;100139.75;5032352;28;20029;-75
2022/09/13 07:36:10;;;;;;;3.50;2.10;;;;;;;20.81;61.29;100144.94;5014504;28;20488;-79
2022/09/13 07:38:37;;;;;;;4.88;2.30;;;;;;;20.79;61.18;100142.31;5032310;28;20483;-77
2022/09/13 07:41:07;;;;;;;8.75;2.92;;;;;;;20.83;61.69;100138.78;5032677;28;20111;-75
2022/09/13 07:43:33;;;;;;;5.20;2.25;;;;;;;21.08;57.73;100141.13;5032206;28;20386;-77
2022/09/13 07:46:07;;;;;;;5.63;2.33;;;;;;;21.27;57.77;100139.16;5032080;28;20029;-80
2022/09/13 07:48:35;;;;;;;4.82;2.42;;;;;;;21.25;58.10;100119.94;5031947;28;20509;-78
2022/09/13 07:51:02;;;;;;;8.05;2.78;;;;;;;21.23;57.31;100139.22;5014495;28;20395;-77
2022/09/13 07:53:28;;;;;;;6.85;2.30;;;;;;;21.07;58.87;100130.66;5032159;28;20080;-75
2022/09/13 07:56:00;;;;;;;4.32;2.20;;;;;;;21.12;56.92;100134.97;5031881;28;20078;-74
2022/09/13 07:58:25;;;;;;;4.40;2.00;;;;;;;21.20;56.15;100126.13;5032055;28;20108;-76
2022/09/13 08:00:51;;;;;;;6.10;2.28;;;;;;;21.46;54.84;100134.53;5031905;28;20078;-79
2022/09/13 08:03:16;;;;;;;3.22;2.05;;;;;;;21.73;54.34;100135.09;5031885;28;20030;-78
2022/09/13 08:05:41;;;;;;;3.42;1.85;;;;;;;21.68;54.19;100104.50;5031918;28;20029;-74
2022/09/13 08:08:07;;;;;;;3.75;2.08;;;;;;;22.05;54.20;100130.22;5031894;28;20104;-81
2022/09/13 08:10:33;;;;;;;2.60;1.98;;;;;;;22.02;52.95;100112.75;5031973;28;20586;-78
2022/09/13 08:12:59;;;;;;;4.82;2.05;;;;;;;22.24;54.76;100128.16;5031660;28;20040;-73
2022/09/13 08:15:25;;;;;;;2.33;1.77;;;;;;;21.85;50.63;100126.16;5031464;28;20033;-78
2022/09/13 08:17:51;;;;;;;2.10;1.90;;;;;;;22.09;49.59;100129.28;5031417;28;20091;-75
2022/09/13 08:20:16;;;;;;;4.38;1.80;;;;;;;22.17;49.21;100126.53;5031577;28;20087;-74
2022/09/13 08:22:42;;;;;;;3.45;1.63;;;;;;;22.31;49.45;100121.91;5031600;28;20029;-78
2022/09/13 08:25:07;;;;;;;2.10;1.85;;;;;;;22.49;48.31;100120.75;5031634;28;20049;-77
2022/09/13 08:27:33;;;;;;;2.30;1.80;;;;;;;22.62;50.60;100118.78;5031523;28;20467;-78
2022/09/13 08:29:58;;;;;;;3.28;2.20;;;;;;;22.73;50.51;100124.69;5031144;28;20466;-74
2022/09/13 08:32:24;;;;;;;4.93;2.10;;;;;;;22.91;51.39;100119.97;5031347;28;20032;-78
2022/09/13 08:34:49;;;;;;;2.30;1.90;;;;;;;22.93;49.30;100108.50;5031296;28;20205;-75
2022/09/13 08:37:15;;;;;;;3.00;2.10;;;;;;;23.09;52.36;100111.72;5031363;28;20059;-77
2022/09/13 08:39:40;;;;;;;2.65;1.73;;;;;;;23.08;50.06;100106.47;5026263;28;20036;-74
2022/09/13 08:42:18;;;;;;;3.35;2.10;;;;;;;23.21;47.16;100104.47;5018593;28;20108;-79
2022/09/13 08:44:51;;;;;;;2.53;1.90;;;;;;;23.29;49.52;100107.84;5023035;28;20035;-75
2022/09/13 08:47:55;;;;;;;3.78;1.90;;;;;;;23.43;47.50;100113.66;5030626;28;20068;-76
2022/09/13 08:50:28;;;;;;;3.40;1.90;;;;;;;22.81;44.05;100089.47;4984458;28;20042;-72
2022/09/13 08:53:21;;;;;;;2.45;1.90;;;;;;;22.86;44.31;100113.94;4987980;28;20137;-75
2022/09/13 08:56:02;;;;;;;1.92;1.70;;;;;;;23.09;44.86;100103.81;4986458;28;20097;-78
2022/09/13 08:59:04;;;;;;;2.50;1.70;;;;;;;23.37;42.42;100103.25;4988530;28;20141;-78
2022/09/13 09:01:48;;;;;;;2.78;1.98;;;;;;;23.51;42.23;100104.72;4988105;28;20038;-76
2022/09/13 09:04:26;;;;;;;6.97;1.95;;;;;;;23.54;45.73;100073.00;4985504;28;20038;-76
2022/09/13 09:07:08;;;;;;;7.38;1.80;;;;;;;23.78;42.94;100110.28;4979855;28;20046;-74
2022/09/13 09:09:39;;;;;;;2.30;1.77;;;;;;;23.52;43.37;100106.44;4979845;28;20022;-78
2022/09/13 09:12:15;;;;;;;2.00;1.70;;;;;;;23.71;42.35;100097.22;4979943;28;20077;-76
2022/09/13 09:14:45;;;;;;;4.20;1.90;;;;;;;23.75;41.13;100076.91;4987826;28;20030;-75
2022/09/13 09:17:16;;;;;;;;;;;;;;;23.94;41.56;100087.94;4988400;28;20037;-78
2022/09/13 09:19:52;;;;;;;2.08;1.67;;;;;;;24.05;41.71;100091.16;4988056;28;19966;-73
2022/09/13 09:22:23;;;;;;;3.30;1.95;;;;;;;24.10;46.92;100098.09;4995343;28;20549;-78
2022/09/13 09:24:54;;;;;;;4.50;2.17;;;;;;;23.75;42.92;100093.63;4988401;28;20061;-75
2022/09/13 09:27:20;;;;;;;2.30;2.00;;;;;;;23.87;46.25;100089.78;5019452;28;20034;-72
2022/09/13 09:29:58;;;;;;;2.85;1.70;;;;;;;24.03;42.04;100081.56;5034984;28;20029;-75
2022/09/13 09:32:59;;;;;;;3.50;1.75;;;;;;;24.17;44.42;100083.84;5020643;28;20125;-72
2022/09/13 09:35:51;;;;;;;2.22;1.60;;;;;;;24.07;46.11;100080.56;4952289;29;20031;-75
2022/09/13 09:38:31;;;;;;;2.40;1.60;;;;;;;24.39;45.08;100085.00;4855250;29;20046;-73
2022/09/13 09:41:05;;;;;;;2.50;1.58;;;;;;;24.52;40.74;100068.84;4845044;29;20069;-76
2022/09/13 09:44:15;;;;;;;5.47;1.77;;;;;;;24.92;41.55;100083.59;4839695;29;20128;-75
2022/09/13 09:46:42;;;;;;;3.92;2.25;;;;;;;25.14;42.45;100075.06;4809339;29;20109;-72
2022/09/13 09:52:06;;;;;;;1.70;1.60;;;;;;;25.50;39.63;100070.44;4814992;29;20077;-73
2022/09/13 09:54:34;;;;;;;3.08;1.70;;;;;;;25.56;39.07;100048.25;4805676;29;20523;-70
2022/09/13 09:57:00;;;;;;;2.30;1.67;;;;;;;25.88;37.62;100063.97;4802971;29;20054;-75
2022/09/13 09:59:30;;;;;;;3.35;1.73;;;;;;;26.07;38.80;100056.31;4804935;29;20039;-71
2022/09/13 10:01:57;;;;;;;3.97;1.70;;;;;;;26.23;37.06;100060.19;4809917;29;20193;-74
2022/09/13 10:04:23;;;;;;;3.08;1.85;;;;;;;26.27;40.30;100064.44;4804868;29;20055;-72
2022/09/13 10:06:50;;;;;;;3.10;1.83;;;;;;;26.03;39.62;100062.59;4808783;29;20133;-76
2022/09/13 10:09:20;;;;;;;2.85;1.70;;;;;;;26.15;37.95;100057.78;4813861;29;20107;-76
2022/09/13 10:11:53;;;;;;;2.15;1.63;;;;;;;26.38;36.46;100056.16;4847929;29;20069;-76
2022/09/13 10:14:29;;;;;;;4.15;1.83;;;;;;;26.42;37.28;100054.25;4866086;28;20505;-76
2022/09/13 10:17:14;;;;;;;2.00;1.60;;;;;;;26.09;36.33;100057.13;4961972;28;20063;-76
2022/09/13 10:19:41;;;;;;;2.38;1.50;;;;;;;26.28;38.36;100050.31;4951915;29;20029;-78
2022/09/13 10:22:12;;;;;;;3.70;1.38;;;;;;;26.38;36.41;100049.97;4955792;28;20449;-77
2022/09/13 10:24:38;;;;;;;3.05;1.40;;;;;;;26.28;38.46;100052.94;5012676;28;20140;-77
2022/09/13 10:27:17;;;;;;;2.17;1.60;;;;;;;26.36;35.43;100042.09;5012896;28;20109;-78
2022/09/13 10:29:48;;;;;;;2.92;1.40;;;;;;;26.27;35.39;100037.97;5012677;28;20018;-78
2022/09/13 10:32:15;;;;;;;2.22;1.30;;;;;;;26.00;35.22;100032.69;5012588;28;20096;-79
2022/09/13 10:34:43;;;;;;;2.67;1.40;;;;;;;26.32;34.23;100008.72;4996709;28;20032;-79
2022/09/13 10:37:16;;;;;;;;;;;;;;;26.70;36.55;100029.41;5012880;28;20056;-81
2022/09/13 10:39:52;;;;;;;2.63;1.33;;;;;;;26.80;33.91;100017.56;5000559;28;19996;-73
2022/09/13 10:42:22;;;;;;;2.88;1.60;;;;;;;26.88;37.42;100011.97;5017585;28;20037;-70
2022/09/13 10:44:57;;;;;;;1.88;1.60;;;;;;;26.63;34.71;100019.03;5017295;28;20424;-76
2022/09/13 10:47:43;;;;;;;3.25;1.50;;;;;;;26.20;37.90;100017.94;5020758;28;20021;-73
2022/09/13 10:50:12;;;;;;;4.40;1.50;;;;;;;26.24;37.29;100016.91;4995843;28;20052;-72
2022/09/13 10:53:02;;;;;;;3.43;1.80;;;;;;;26.29;38.72;100011.47;5011777;28;20507;-74
2022/09/13 10:55:41;;;;;;;2.92;1.90;;;;;;;26.17;38.33;100015.44;4945432;29;20498;-74
2022/09/13 10:58:12;;;;;;;;;;;;;;;25.88;38.94;100008.44;4941806;29;20179;-74
2022/09/13 11:00:56;;;;;;;3.03;1.48;;;;;;;25.66;38.16;100011.81;4933469;29;19925;-74
2022/09/13 11:03:33;;;;;;;3.78;1.48;;;;;;;25.16;38.41;99980.78;4933060;29;20135;-73
2022/09/13 11:06:20;;;;;;;2.20;1.40;;;;;;;25.19;38.94;99980.69;4933093;29;20171;-73
2022/09/13 11:09:04;;;;;;;3.28;1.50;;;;;;;25.03;40.55;100004.94;4943674;29;20040;-74
2022/09/13 11:11:48;;;;;;;3.00;1.50;;;;;;;24.43;39.50;100014.56;4952562;29;20082;-77
2022/09/13 11:14:55;;;;;;;2.95;1.63;;;;;;;24.65;40.17;100006.94;4944829;29;20043;-71
2022/09/13 11:18:05;;;;;;;2.60;1.52;;;;;;;24.84;41.80;99975.56;4929669;29;20142;-72
2022/09/13 11:20:42;;;;;;;2.05;1.52;;;;;;;24.89;40.71;100009.78;4892982;29;20040;-71
2022/09/13 11:23:16;;;;;;;1.88;1.23;;;;;;;24.85;39.92;100002.84;4893343;29;20072;-75
2022/09/13 11:26:05;;;;;;;1.60;1.48;;;;;;;24.63;39.04;99979.69;4893479;29;20606;-74
2022/09/13 11:29:07;;;;;;;5.65;1.60;;;;;;;25.08;38.22;99998.66;4877788;29;20028;-77
2022/09/13 11:31:57;;;;;;;1.52;1.30;;;;;;;25.09;37.96;100001.25;4897119;29;20446;-77
2022/09/13 11:34:35;;;;;;;1.95;1.40;;;;;;;24.97;37.22;99984.00;4913816;29;20046;-75
2022/09/13 11:37:27;;;;;;;2.58;1.55;;;;;;;25.59;38.09;99991.78;4927804;29;20067;-75
2022/09/13 11:40:26;;;;;;;1.92;1.40;;;;;;;26.02;36.69;99985.03;4889990;29;20815;-77
2022/09/13 11:43:02;;;;;;;2.88;1.40;;;;;;;26.21;37.58;99957.97;4893512;29;20046;-75
2022/09/13 11:45:31;;;;;;;1.77;1.40;;;;;;;26.45;35.45;99961.50;4892979;29;20072;-77
2022/09/13 11:48:26;;;;;;;4.22;1.50;;;;;;;26.73;33.19;99978.97;4892454;29;20031;-78
2022/09/13 11:51:09;;;;;;;2.03;1.30;;;;;;;27.04;32.72;99977.81;4874494;29;20616;-80
2022/09/13 11:54:00;;;;;;;3.92;1.48;;;;;;;27.05;32.29;99975.09;4874292;29;20024;-78
2022/09/13 11:56:33;;;;;;;3.20;1.33;;;;;;;26.30;36.64;99977.00;4875257;29;20031;-75
2022/09/13 11:59:13;;;;;;;2.42;1.60;;;;;;;25.98;37.45;99949.03;4892824;29;20047;-77